LEBZ

Badajoz Airport

Badajoz, Spain
METAR LEBZ 241100Z 25006KT 9999 FEW035 18/17 Q1013
Observed Flight Rules
May-24 @ 11:00 UTC (an hour ago) Visual Flight Rules
Wind Visibility Clouds
250° at 6 knots 10,000+ meters
  • Few at 3,500' AGL
Temperatures Readings
Current 18°C / 64°F
Dewpoint 17°C / 63°F
Humidity 94%
Altimeter 29.91" Hg
Pressure 1013 hPa
Elevation 192
METAR LEBZ 241100Z 25006KT 9999 FEW035 18/17 Q1013
Observed Flight Rules
May-24 @ 11:00 UTC
(an hour ago)
VFR
Wind Visibility
250° at 6 knots 10,000+ meters
Clouds
  • Few at 3,500' AGL
Temperature Dewpoint
18°C / 64°F 17°C / 63°F
Humidity Altimeter Pressure
94% 29.91" Hg 1013 hPa